VOZ853 YMML-YSSY
Flight info
| Callsign | VOZ853 |
|---|---|
| Flight time | 1h 4m |
| Altitude | 39000 |
| Route | DOSEL Y59 RIVET |
| Aircraft | B38M/M-SDE1FGHILORVWXY/HB1 |
Departure
| Time | 2026-05-06 06:01 |
|---|---|
| Airport | Melbourne Airport (YMML) |
Arrival
| Time | 2026-05-06 07:06 |
|---|---|
| Airport | Sydney Kingsford Smith International Airport (YSSY) |
| Time | Latitude | Longitude | Altitude | Speed | Heading |
|---|---|---|---|---|---|
| 2026-05-06 05:33 | -37.67069 | 144.84624 | 392 ft | 0 kts | 171° |
| 2026-05-06 05:52 | -37.67058 | 144.84622 | 392 ft | 2 kts | 170° |
| 2026-05-06 05:53 | -37.67042 | 144.84619 | 393 ft | 2 kts | 169° |
| 2026-05-06 05:53 | -37.67026 | 144.84615 | 393 ft | 2 kts | 173° |
| 2026-05-06 05:53 | -37.67010 | 144.84618 | 393 ft | 2 kts | 231° |
| 2026-05-06 05:53 | -37.67005 | 144.84634 | 392 ft | 1 kts | 258° |
| 2026-05-06 05:54 | -37.67004 | 144.84638 | 393 ft | 0 kts | 259° |
| 2026-05-06 05:56 | -37.67004 | 144.84637 | 393 ft | 1 kts | 259° |
| 2026-05-06 05:57 | -37.67010 | 144.84589 | 393 ft | 12 kts | 262° |
| 2026-05-06 05:57 | -37.67027 | 144.84465 | 391 ft | 13 kts | 240° |
| 2026-05-06 05:57 | -37.67055 | 144.84338 | 389 ft | 18 kts | 262° |
| 2026-05-06 05:57 | -37.67075 | 144.84168 | 386 ft | 19 kts | 261° |
| 2026-05-06 05:58 | -37.67112 | 144.84059 | 384 ft | 15 kts | 211° |
| 2026-05-06 05:58 | -37.67229 | 144.84065 | 381 ft | 20 kts | 172° |
| 2026-05-06 05:58 | -37.67373 | 144.84091 | 377 ft | 21 kts | 172° |
| 2026-05-06 05:58 | -37.67520 | 144.84119 | 372 ft | 20 kts | 171° |
| 2026-05-06 05:59 | -37.67664 | 144.84145 | 374 ft | 23 kts | 171° |
| 2026-05-06 05:59 | -37.67806 | 144.84172 | 364 ft | 18 kts | 175° |
| 2026-05-06 05:59 | -37.67871 | 144.84127 | 363 ft | 7 kts | 253° |
| 2026-05-06 05:59 | -37.67872 | 144.84116 | 365 ft | 0 kts | 259° |
| 2026-05-06 06:00 | -37.67874 | 144.84106 | 362 ft | 5 kts | 259° |
| 2026-05-06 06:00 | -37.67888 | 144.84006 | 359 ft | 12 kts | 259° |
| 2026-05-06 06:00 | -37.67856 | 144.83961 | 360 ft | 7 kts | 353° |
| 2026-05-06 06:00 | -37.67755 | 144.83944 | 361 ft | 37 kts | 352° |
| 2026-05-06 06:01 | -37.67255 | 144.83852 | 380 ft | 105 kts | 352° |
| 2026-05-06 06:01 | -37.66366 | 144.83694 | 570 ft | 141 kts | 352° |
| 2026-05-06 06:01 | -37.65367 | 144.83475 | 1193 ft | 152 kts | 349° |
| 2026-05-06 06:01 | -37.64305 | 144.83247 | 1947 ft | 156 kts | 348° |
| 2026-05-06 06:02 | -37.63178 | 144.83032 | 2578 ft | 176 kts | 348° |
| 2026-05-06 06:02 | -37.61885 | 144.82805 | 3163 ft | 196 kts | 349° |
| 2026-05-06 06:02 | -37.60472 | 144.82547 | 3806 ft | 214 kts | 347° |
| 2026-05-06 06:02 | -37.58904 | 144.82581 | 4416 ft | 243 kts | 12° |
| 2026-05-06 06:03 | -37.57304 | 144.83466 | 5060 ft | 264 kts | 21° |
| 2026-05-06 06:03 | -37.55568 | 144.84496 | 5801 ft | 277 kts | 21° |
| 2026-05-06 06:03 | -37.53837 | 144.85528 | 6732 ft | 282 kts | 20° |
| 2026-05-06 06:03 | -37.52051 | 144.86601 | 7596 ft | 287 kts | 20° |
| 2026-05-06 06:04 | -37.50232 | 144.87700 | 8507 ft | 292 kts | 20° |
| 2026-05-06 06:04 | -37.48383 | 144.88819 | 9393 ft | 297 kts | 20° |
| 2026-05-06 06:04 | -37.46511 | 144.89955 | 10281 ft | 301 kts | 20° |
| 2026-05-06 06:04 | -37.44583 | 144.91166 | 10779 ft | 322 kts | 27° |
| 2026-05-06 06:05 | -37.42907 | 144.93149 | 11460 ft | 341 kts | 50° |
| 2026-05-06 06:05 | -37.41509 | 144.95608 | 12214 ft | 347 kts | 50° |
| 2026-05-06 06:05 | -37.40090 | 144.98070 | 13137 ft | 349 kts | 50° |
| 2026-05-06 06:05 | -37.38674 | 145.00548 | 13945 ft | 354 kts | 50° |
| 2026-05-06 06:06 | -37.37239 | 145.03077 | 14728 ft | 357 kts | 50° |
| 2026-05-06 06:06 | -37.35788 | 145.05639 | 15492 ft | 361 kts | 50° |
| 2026-05-06 06:06 | -37.34325 | 145.08224 | 16248 ft | 365 kts | 49° |
| 2026-05-06 06:06 | -37.32846 | 145.10837 | 16978 ft | 369 kts | 49° |
| 2026-05-06 06:07 | -37.31346 | 145.13482 | 17693 ft | 373 kts | 49° |
| 2026-05-06 06:07 | -37.29829 | 145.16155 | 18401 ft | 377 kts | 49° |
| 2026-05-06 06:07 | -37.28303 | 145.18844 | 19010 ft | 380 kts | 49° |
| 2026-05-06 06:07 | -37.26773 | 145.21536 | 19610 ft | 383 kts | 49° |
| 2026-05-06 06:08 | -37.25214 | 145.24278 | 20221 ft | 386 kts | 49° |
| 2026-05-06 06:08 | -37.23646 | 145.27034 | 20780 ft | 390 kts | 48° |
| 2026-05-06 06:08 | -37.22063 | 145.29814 | 21378 ft | 392 kts | 48° |
| 2026-05-06 06:08 | -37.20469 | 145.32610 | 21976 ft | 395 kts | 48° |
| 2026-05-06 06:09 | -37.18887 | 145.35382 | 22565 ft | 398 kts | 48° |
| 2026-05-06 06:09 | -37.17269 | 145.38217 | 23156 ft | 401 kts | 48° |
| 2026-05-06 06:09 | -37.15635 | 145.41073 | 23739 ft | 404 kts | 47° |
| 2026-05-06 06:09 | -37.13987 | 145.43949 | 24220 ft | 407 kts | 47° |
| 2026-05-06 06:10 | -37.12331 | 145.46839 | 24737 ft | 410 kts | 47° |
| 2026-05-06 06:10 | -37.10661 | 145.49749 | 25249 ft | 412 kts | 47° |
| 2026-05-06 06:10 | -37.08982 | 145.52675 | 25757 ft | 415 kts | 47° |
| 2026-05-06 06:10 | -37.07292 | 145.55616 | 26252 ft | 417 kts | 47° |
| 2026-05-06 06:11 | -37.05589 | 145.58576 | 26751 ft | 420 kts | 47° |
| 2026-05-06 06:11 | -37.03880 | 145.61545 | 27250 ft | 422 kts | 47° |
| 2026-05-06 06:11 | -37.02179 | 145.64497 | 27703 ft | 425 kts | 47° |
| 2026-05-06 06:11 | -37.00439 | 145.67514 | 28136 ft | 428 kts | 47° |
| 2026-05-06 06:12 | -36.98684 | 145.70554 | 28584 ft | 431 kts | 47° |
| 2026-05-06 06:12 | -36.96924 | 145.73601 | 29036 ft | 434 kts | 47° |
| 2026-05-06 06:12 | -36.95147 | 145.76675 | 29471 ft | 437 kts | 47° |
| 2026-05-06 06:12 | -36.93356 | 145.79768 | 29899 ft | 439 kts | 47° |
| 2026-05-06 06:13 | -36.91560 | 145.82868 | 30329 ft | 441 kts | 47° |
| 2026-05-06 06:13 | -36.89775 | 145.85947 | 30669 ft | 444 kts | 47° |
| 2026-05-06 06:13 | -36.87960 | 145.89074 | 31016 ft | 447 kts | 47° |
| 2026-05-06 06:13 | -36.86130 | 145.92224 | 31362 ft | 449 kts | 47° |
| 2026-05-06 06:14 | -36.84283 | 145.95403 | 31712 ft | 452 kts | 47° |
| 2026-05-06 06:14 | -36.82427 | 145.98591 | 32064 ft | 454 kts | 47° |
| 2026-05-06 06:14 | -36.80564 | 146.01787 | 32375 ft | 457 kts | 47° |
| 2026-05-06 06:14 | -36.78689 | 146.05001 | 32712 ft | 459 kts | 47° |
| 2026-05-06 06:15 | -36.76802 | 146.08237 | 33057 ft | 461 kts | 47° |
| 2026-05-06 06:15 | -36.74936 | 146.11432 | 33357 ft | 463 kts | 47° |
| 2026-05-06 06:15 | -36.73029 | 146.14690 | 33673 ft | 466 kts | 47° |
| 2026-05-06 06:15 | -36.71114 | 146.17962 | 33994 ft | 468 kts | 47° |
| 2026-05-06 06:16 | -36.69187 | 146.21252 | 34271 ft | 471 kts | 48° |
| 2026-05-06 06:16 | -36.67245 | 146.24562 | 34579 ft | 472 kts | 48° |
| 2026-05-06 06:16 | -36.65311 | 146.27858 | 34951 ft | 472 kts | 47° |
| 2026-05-06 06:16 | -36.63372 | 146.31157 | 35326 ft | 471 kts | 48° |
| 2026-05-06 06:17 | -36.61435 | 146.34451 | 35663 ft | 470 kts | 48° |
| 2026-05-06 06:17 | -36.59528 | 146.37689 | 36006 ft | 470 kts | 48° |
| 2026-05-06 06:17 | -36.57596 | 146.40967 | 36346 ft | 469 kts | 48° |
| 2026-05-06 06:17 | -36.55666 | 146.44239 | 36684 ft | 469 kts | 48° |
| 2026-05-06 06:18 | -36.53733 | 146.47513 | 37016 ft | 469 kts | 48° |
| 2026-05-06 06:18 | -36.51802 | 146.50779 | 37346 ft | 468 kts | 48° |
| 2026-05-06 06:18 | -36.49873 | 146.54041 | 37664 ft | 468 kts | 48° |
| 2026-05-06 06:18 | -36.47948 | 146.57290 | 37935 ft | 468 kts | 48° |
| 2026-05-06 06:19 | -36.46011 | 146.60558 | 38215 ft | 468 kts | 48° |
| 2026-05-06 06:19 | -36.44084 | 146.63806 | 38503 ft | 467 kts | 48° |
| 2026-05-06 06:19 | -36.42152 | 146.67059 | 38780 ft | 467 kts | 47° |
| 2026-05-06 06:19 | -36.40230 | 146.70293 | 39001 ft | 466 kts | 47° |
| 2026-05-06 06:20 | -36.38324 | 146.73495 | 39133 ft | 468 kts | 47° |
| 2026-05-06 06:20 | -36.36378 | 146.76761 | 39149 ft | 473 kts | 47° |
| 2026-05-06 06:20 | -36.32452 | 146.83345 | 39143 ft | 474 kts | 47° |
| 2026-05-06 06:21 | -36.28529 | 146.89910 | 39134 ft | 473 kts | 47° |
| 2026-05-06 06:21 | -36.24603 | 146.96470 | 39141 ft | 474 kts | 47° |
| 2026-05-06 06:22 | -36.20676 | 147.03021 | 39124 ft | 474 kts | 47° |
| 2026-05-06 06:22 | -36.17400 | 147.08468 | 39135 ft | 474 kts | 47° |
| 2026-05-06 06:23 | -36.13461 | 147.15008 | 39141 ft | 474 kts | 47° |
| 2026-05-06 06:23 | -36.09534 | 147.21518 | 39143 ft | 474 kts | 47° |
| 2026-05-06 06:24 | -36.05585 | 147.28051 | 39131 ft | 474 kts | 48° |
| 2026-05-06 06:24 | -36.01624 | 147.34594 | 39141 ft | 475 kts | 47° |
| 2026-05-06 06:25 | -35.97675 | 147.41104 | 39135 ft | 474 kts | 47° |
| 2026-05-06 06:26 | -35.91733 | 147.50874 | 39142 ft | 474 kts | 47° |
| 2026-05-06 06:26 | -35.87768 | 147.57380 | 39138 ft | 474 kts | 47° |
| 2026-05-06 06:27 | -35.83827 | 147.63834 | 39126 ft | 474 kts | 47° |
| 2026-05-06 06:27 | -35.79859 | 147.70318 | 39111 ft | 473 kts | 47° |
| 2026-05-06 06:28 | -35.75884 | 147.76802 | 39130 ft | 474 kts | 47° |
| 2026-05-06 06:28 | -35.71904 | 147.83284 | 39125 ft | 474 kts | 47° |
| 2026-05-06 06:29 | -35.67945 | 147.89718 | 39131 ft | 474 kts | 47° |
| 2026-05-06 06:29 | -35.63956 | 147.96189 | 39116 ft | 474 kts | 47° |
| 2026-05-06 06:30 | -35.59959 | 148.02662 | 39134 ft | 475 kts | 47° |
| 2026-05-06 06:30 | -35.55959 | 148.09126 | 39127 ft | 475 kts | 47° |
| 2026-05-06 06:31 | -35.51987 | 148.15533 | 39113 ft | 475 kts | 47° |
| 2026-05-06 06:31 | -35.47977 | 148.21991 | 39127 ft | 476 kts | 47° |
| 2026-05-06 06:32 | -35.43952 | 148.28459 | 39119 ft | 476 kts | 47° |
| 2026-05-06 06:32 | -35.39947 | 148.34885 | 39112 ft | 476 kts | 47° |
| 2026-05-06 06:33 | -35.35917 | 148.41337 | 39093 ft | 476 kts | 47° |
| 2026-05-06 06:33 | -35.31878 | 148.47792 | 39116 ft | 477 kts | 47° |
| 2026-05-06 06:34 | -35.27832 | 148.54247 | 39107 ft | 477 kts | 47° |
| 2026-05-06 06:34 | -35.23819 | 148.60637 | 39105 ft | 477 kts | 47° |
| 2026-05-06 06:35 | -35.19772 | 148.67068 | 39095 ft | 477 kts | 47° |
| 2026-05-06 06:35 | -35.15713 | 148.73507 | 39104 ft | 478 kts | 47° |
| 2026-05-06 06:36 | -35.11645 | 148.79952 | 39099 ft | 478 kts | 47° |
| 2026-05-06 06:36 | -35.07604 | 148.86337 | 39101 ft | 478 kts | 47° |
| 2026-05-06 06:37 | -35.03531 | 148.92764 | 39092 ft | 479 kts | 46° |
| 2026-05-06 06:37 | -34.99450 | 148.99193 | 38381 ft | 480 kts | 47° |
| 2026-05-06 06:37 | -34.97391 | 149.02430 | 37547 ft | 481 kts | 47° |
| 2026-05-06 06:38 | -34.95352 | 149.05636 | 36979 ft | 476 kts | 47° |
| 2026-05-06 06:38 | -34.93320 | 149.08823 | 36087 ft | 479 kts | 47° |
| 2026-05-06 06:38 | -34.91276 | 149.12030 | 35478 ft | 476 kts | 47° |
| 2026-05-06 06:38 | -34.89256 | 149.15197 | 34879 ft | 473 kts | 48° |
| 2026-05-06 06:39 | -34.87264 | 149.18315 | 34225 ft | 472 kts | 48° |
| 2026-05-06 06:39 | -34.85247 | 149.21470 | 33514 ft | 470 kts | 48° |
| 2026-05-06 06:39 | -34.83246 | 149.24599 | 32890 ft | 466 kts | 48° |
| 2026-05-06 06:39 | -34.81260 | 149.27700 | 32362 ft | 461 kts | 48° |
| 2026-05-06 06:40 | -34.79298 | 149.30762 | 31838 ft | 456 kts | 48° |
| 2026-05-06 06:40 | -34.77354 | 149.33793 | 31290 ft | 453 kts | 48° |
| 2026-05-06 06:40 | -34.75421 | 149.36805 | 30722 ft | 450 kts | 49° |
| 2026-05-06 06:40 | -34.73631 | 149.39867 | 30167 ft | 451 kts | 58° |
| 2026-05-06 06:41 | -34.72203 | 149.43273 | 29512 ft | 450 kts | 59° |
| 2026-05-06 06:41 | -34.70724 | 149.46604 | 28985 ft | 444 kts | 59° |
| 2026-05-06 06:41 | -34.69269 | 149.49898 | 28461 ft | 440 kts | 59° |
| 2026-05-06 06:41 | -34.67832 | 149.53175 | 27931 ft | 437 kts | 59° |
| 2026-05-06 06:42 | -34.66416 | 149.56415 | 27403 ft | 433 kts | 59° |
| 2026-05-06 06:42 | -34.65007 | 149.59639 | 26893 ft | 430 kts | 59° |
| 2026-05-06 06:42 | -34.63610 | 149.62832 | 26372 ft | 427 kts | 59° |
| 2026-05-06 06:42 | -34.62217 | 149.66012 | 25869 ft | 425 kts | 59° |
| 2026-05-06 06:43 | -34.60848 | 149.69134 | 25363 ft | 423 kts | 59° |
| 2026-05-06 06:43 | -34.59466 | 149.72284 | 24860 ft | 421 kts | 59° |
| 2026-05-06 06:43 | -34.58093 | 149.75411 | 24367 ft | 419 kts | 59° |
| 2026-05-06 06:43 | -34.56719 | 149.78536 | 23868 ft | 418 kts | 59° |
| 2026-05-06 06:44 | -34.55354 | 149.81638 | 23321 ft | 417 kts | 59° |
| 2026-05-06 06:44 | -34.53994 | 149.84726 | 22777 ft | 414 kts | 59° |
| 2026-05-06 06:44 | -34.52639 | 149.87802 | 22289 ft | 411 kts | 59° |
| 2026-05-06 06:44 | -34.51294 | 149.90852 | 21813 ft | 408 kts | 59° |
| 2026-05-06 06:45 | -34.49971 | 149.93846 | 21317 ft | 407 kts | 59° |
| 2026-05-06 06:45 | -34.48636 | 149.96865 | 20771 ft | 406 kts | 59° |
| 2026-05-06 06:45 | -34.47305 | 149.99872 | 20348 ft | 402 kts | 59° |
| 2026-05-06 06:45 | -34.45986 | 150.02850 | 19902 ft | 400 kts | 59° |
| 2026-05-06 06:46 | -34.44675 | 150.05808 | 19461 ft | 398 kts | 59° |
| 2026-05-06 06:46 | -34.43368 | 150.08757 | 19010 ft | 396 kts | 59° |
| 2026-05-06 06:46 | -34.42071 | 150.11679 | 18567 ft | 394 kts | 59° |
| 2026-05-06 06:46 | -34.40770 | 150.14606 | 18088 ft | 393 kts | 59° |
| 2026-05-06 06:47 | -34.39480 | 150.17508 | 17616 ft | 390 kts | 60° |
| 2026-05-06 06:47 | -34.38198 | 150.20388 | 17176 ft | 387 kts | 60° |
| 2026-05-06 06:47 | -34.36944 | 150.23206 | 16762 ft | 383 kts | 59° |
| 2026-05-06 06:47 | -34.35683 | 150.26034 | 16344 ft | 380 kts | 59° |
| 2026-05-06 06:48 | -34.34431 | 150.28839 | 15930 ft | 377 kts | 59° |
| 2026-05-06 06:48 | -34.33190 | 150.31616 | 15529 ft | 374 kts | 59° |
| 2026-05-06 06:48 | -34.31957 | 150.34372 | 15123 ft | 371 kts | 59° |
| 2026-05-06 06:48 | -34.30737 | 150.37104 | 14719 ft | 368 kts | 59° |
| 2026-05-06 06:49 | -34.29526 | 150.39811 | 14334 ft | 365 kts | 59° |
| 2026-05-06 06:49 | -34.28319 | 150.42509 | 13956 ft | 362 kts | 59° |
| 2026-05-06 06:49 | -34.27122 | 150.45186 | 13488 ft | 361 kts | 59° |
| 2026-05-06 06:49 | -34.25930 | 150.47854 | 13081 ft | 358 kts | 59° |
| 2026-05-06 06:50 | -34.24755 | 150.50482 | 12715 ft | 354 kts | 59° |
| 2026-05-06 06:50 | -34.23588 | 150.53089 | 12356 ft | 350 kts | 59° |
| 2026-05-06 06:50 | -34.22434 | 150.55664 | 11979 ft | 346 kts | 60° |
| 2026-05-06 06:50 | -34.21293 | 150.58210 | 11616 ft | 343 kts | 60° |
| 2026-05-06 06:51 | -34.20179 | 150.60694 | 11356 ft | 338 kts | 60° |
| 2026-05-06 06:51 | -34.19074 | 150.63157 | 11194 ft | 328 kts | 60° |
| 2026-05-06 06:51 | -34.18003 | 150.65542 | 11048 ft | 319 kts | 60° |
| 2026-05-06 06:51 | -34.16960 | 150.67863 | 10886 ft | 311 kts | 60° |
| 2026-05-06 06:52 | -34.15933 | 150.70144 | 10750 ft | 306 kts | 60° |
| 2026-05-06 06:52 | -34.14922 | 150.72388 | 10532 ft | 304 kts | 60° |
| 2026-05-06 06:52 | -34.13909 | 150.74637 | 10205 ft | 305 kts | 60° |
| 2026-05-06 06:52 | -34.12893 | 150.76890 | 9813 ft | 306 kts | 60° |
| 2026-05-06 06:53 | -34.11874 | 150.79151 | 9431 ft | 306 kts | 60° |
| 2026-05-06 06:53 | -34.10857 | 150.81403 | 9114 ft | 303 kts | 60° |
| 2026-05-06 06:53 | -34.09858 | 150.83621 | 8856 ft | 299 kts | 60° |
| 2026-05-06 06:53 | -34.08888 | 150.85777 | 8631 ft | 293 kts | 60° |
| 2026-05-06 06:54 | -34.07914 | 150.87944 | 8436 ft | 294 kts | 60° |
| 2026-05-06 06:54 | -34.06939 | 150.90108 | 8223 ft | 293 kts | 60° |
| 2026-05-06 06:54 | -34.05967 | 150.92266 | 8002 ft | 293 kts | 60° |
| 2026-05-06 06:54 | -34.04994 | 150.94422 | 7776 ft | 292 kts | 60° |
| 2026-05-06 06:55 | -34.04023 | 150.96572 | 7569 ft | 291 kts | 60° |
| 2026-05-06 06:55 | -34.03058 | 150.98708 | 7351 ft | 290 kts | 60° |
| 2026-05-06 06:55 | -34.02100 | 151.00847 | 7127 ft | 290 kts | 60° |
| 2026-05-06 06:55 | -34.00940 | 151.02802 | 6841 ft | 286 kts | 40° |
| 2026-05-06 06:56 | -33.99283 | 151.03959 | 6619 ft | 275 kts | 14° |
| 2026-05-06 06:56 | -33.97410 | 151.04182 | 6478 ft | 271 kts | 355° |
| 2026-05-06 06:56 | -33.95520 | 151.04049 | 6383 ft | 272 kts | 353° |
| 2026-05-06 06:56 | -33.93638 | 151.03865 | 6244 ft | 269 kts | 353° |
| 2026-05-06 06:57 | -33.91791 | 151.03678 | 6061 ft | 263 kts | 353° |
| 2026-05-06 06:57 | -33.89986 | 151.03493 | 5859 ft | 258 kts | 353° |
| 2026-05-06 06:57 | -33.88216 | 151.03311 | 5654 ft | 253 kts | 353° |
| 2026-05-06 06:57 | -33.86479 | 151.03130 | 5449 ft | 249 kts | 353° |
| 2026-05-06 06:58 | -33.84765 | 151.02946 | 5247 ft | 247 kts | 353° |
| 2026-05-06 06:58 | -33.83060 | 151.02743 | 5044 ft | 246 kts | 353° |
| 2026-05-06 06:58 | -33.81358 | 151.02529 | 4860 ft | 245 kts | 353° |
| 2026-05-06 06:58 | -33.79658 | 151.02311 | 4644 ft | 245 kts | 353° |
| 2026-05-06 06:59 | -33.77962 | 151.02091 | 4456 ft | 244 kts | 353° |
| 2026-05-06 06:59 | -33.76274 | 151.01867 | 4253 ft | 243 kts | 353° |
| 2026-05-06 06:59 | -33.74620 | 151.01638 | 4059 ft | 242 kts | 353° |
| 2026-05-06 06:59 | -33.72950 | 151.01450 | 3968 ft | 240 kts | 2° |
| 2026-05-06 07:00 | -33.71367 | 151.02027 | 3832 ft | 242 kts | 32° |
| 2026-05-06 07:00 | -33.70241 | 151.03518 | 3564 ft | 245 kts | 63° |
| 2026-05-06 07:00 | -33.69746 | 151.05480 | 3316 ft | 247 kts | 77° |
| 2026-05-06 07:00 | -33.69479 | 151.07517 | 3078 ft | 247 kts | 90° |
| 2026-05-06 07:01 | -33.69891 | 151.09496 | 3016 ft | 246 kts | 118° |
| 2026-05-06 07:01 | -33.71022 | 151.11027 | 2969 ft | 247 kts | 147° |
| 2026-05-06 07:01 | -33.72571 | 151.11841 | 2992 ft | 237 kts | 166° |
| 2026-05-06 07:01 | -33.74100 | 151.12281 | 2987 ft | 223 kts | 168° |
| 2026-05-06 07:02 | -33.75571 | 151.12668 | 2966 ft | 209 kts | 169° |
| 2026-05-06 07:02 | -33.76958 | 151.13027 | 2985 ft | 202 kts | 169° |
| 2026-05-06 07:02 | -33.78339 | 151.13384 | 2890 ft | 205 kts | 169° |
| 2026-05-06 07:02 | -33.79739 | 151.13745 | 2644 ft | 205 kts | 169° |
| 2026-05-06 07:03 | -33.81134 | 151.14106 | 2392 ft | 205 kts | 168° |
| 2026-05-06 07:03 | -33.82529 | 151.14465 | 2142 ft | 205 kts | 167° |
| 2026-05-06 07:03 | -33.83920 | 151.14825 | 1880 ft | 205 kts | 167° |
| 2026-05-06 07:03 | -33.85294 | 151.15181 | 1630 ft | 204 kts | 166° |
| 2026-05-06 07:04 | -33.86703 | 151.15546 | 1377 ft | 200 kts | 167° |
| 2026-05-06 07:04 | -33.87974 | 151.15873 | 1155 ft | 178 kts | 166° |
| 2026-05-06 07:04 | -33.89121 | 151.16171 | 887 ft | 161 kts | 165° |
| 2026-05-06 07:04 | -33.90158 | 151.16440 | 649 ft | 147 kts | 165° |
| 2026-05-06 07:05 | -33.91149 | 151.16697 | 429 ft | 144 kts | 166° |
| 2026-05-06 07:05 | -33.92153 | 151.16964 | 245 ft | 151 kts | 166° |
| 2026-05-06 07:05 | -33.93160 | 151.17218 | 52 ft | 144 kts | 166° |
| 2026-05-06 07:05 | -33.94012 | 151.17440 | 29 ft | 95 kts | 168° |
| 2026-05-06 07:06 | -33.94325 | 151.17540 | 33 ft | 30 kts | 147° |
| 2026-05-06 07:06 | -33.94449 | 151.17649 | 33 ft | 21 kts | 142° |
| 2026-05-06 07:06 | -33.94513 | 151.17740 | 32 ft | 11 kts | 109° |
| 2026-05-06 07:06 | -33.94522 | 151.17775 | 32 ft | 0 kts | 99° |
| 2026-05-06 07:07 | -33.94522 | 151.17779 | 32 ft | 0 kts | 99° |
| 2026-05-06 07:07 | -33.94509 | 151.17794 | 32 ft | 6 kts | 23° |
| 2026-05-06 07:07 | -33.94460 | 151.17778 | 32 ft | 11 kts | 335° |
| 2026-05-06 07:08 | -33.94388 | 151.17752 | 32 ft | 12 kts | 344° |
| 2026-05-06 07:08 | -33.94301 | 151.17726 | 32 ft | 14 kts | 346° |
| 2026-05-06 07:08 | -33.94201 | 151.17695 | 32 ft | 14 kts | 345° |
| 2026-05-06 07:08 | -33.94098 | 151.17663 | 31 ft | 17 kts | 347° |
| 2026-05-06 07:09 | -33.93979 | 151.17632 | 31 ft | 17 kts | 348° |
| 2026-05-06 07:09 | -33.93882 | 151.17634 | 32 ft | 13 kts | 40° |
| 2026-05-06 07:09 | -33.93843 | 151.17737 | 32 ft | 15 kts | 49° |
| 2026-05-06 07:09 | -33.93761 | 151.17777 | 32 ft | 12 kts | 15° |
| 2026-05-06 07:10 | -33.93683 | 151.17801 | 33 ft | 12 kts | 15° |
| 2026-05-06 07:10 | -33.93603 | 151.17821 | 33 ft | 13 kts | 11° |
| 2026-05-06 07:10 | -33.93566 | 151.17844 | 33 ft | 4 kts | 76° |
| 2026-05-06 07:10 | -33.93569 | 151.17860 | 33 ft | 3 kts | 104° |
| 2026-05-06 07:11 | -33.93575 | 151.17894 | 33 ft | 2 kts | 99° |
| 2026-05-06 07:11 | -33.93576 | 151.17899 | 33 ft | 0 kts | 102° |